首页
METAR-TAF:

METAR-TAF

机场 :

特倫頓空軍基地

特伦顿, 安大略省, 加拿大

纬度: 44-07N, 经度: 077-32W, 海拔: 85米

当前天气观测

该预报发布于38分钟前的05:00 UTC
风速3节,风向东北
温度 -6°C
湿度 79%
气压 1014 hPa
能見度: 14.5公里
阴天层高于3100英尺
阴天层高于6800英尺

METAR: CYTR 190500Z AUTO 05003KT 9SM OVC031 OVC068 M06/M09 A2994 RMK SLP145

时间: 00:38 (05:38 UTC)

预报

该预报发布于8分钟前的05:30 UTC
预报有效从19日的 06点(UTC)到 20日的 06点(UTC)
风速3节,风向多变
能見度: 10公里
多云层高于3000英尺
短暂存在
从 19日的 08点(UTC)到 19日的 14点(UTC)
能見度: 10公里
小雪
从 19日的 1400点(UTC)
风速3节,风向多变
能見度: 4.8公里
散云层高于1500英尺
多云层高于3000英尺
小雪
几率 30%
从 19日的 14点(UTC)到 19日的 18点(UTC)
能見度: 1.6公里
阴天层高于1500英尺
小阵雪
成为
从 19日的 16点(UTC)到 19日的 18点(UTC)
风速15节,风向西转西南,有时为25节阵风
从 19日的 1800点(UTC)
风速15节,风向西转西南,有时为25节阵风
能見度: 10公里
多云层高于3000英尺
成为
从 19日的 21点(UTC)到 19日的 23点(UTC)
风速12节,风向西转西南
从 20日的 0000点(UTC)
风速10节,风向西
能見度: 10公里
散云层高于3000英尺
多云层高于10000英尺

TAF: CYTR 190530Z 1906/2006 VRB03KT P6SM BKN030 TEMPO 1908/1914 P6SM -SN FM191400 VRB03KT 3SM -SN SCT015 BKN030 PROB30 1914/1918 1SM -SHSN OVC015 BECMG 1916/1918 25015G25KT FM191800 24015G25KT P6SM BKN030 BECMG 1921/1923 24012KT FM200000 26010KT P6SM SCT030 BKN100 RMK FCST BASED ON AUTO OBS 190600-191100Z. NXT FCST BY 191200Z

超过4000个机场的气象观测和天气预报(METAR&TAF报告)。

可查询的气象台以黄色和红色小点在地图上表示。

将鼠标移到小点上方,可查看气象台名称。

然后点击查看天气观测和预报。

如需切换地图:点击带黑十字的绿色按钮放大地图;点击带横线的绿色按钮缩小地图;或者点击绿色箭头查看邻近地区的地图。


METAR-TAF: